createdAt,value
2023-05-11T00:01:46.146Z,9.89
2023-05-11T00:08:28.679Z,9.71
2023-05-11T00:15:11.338Z,9.58
2023-05-11T00:21:53.556Z,9.44
2023-05-11T00:28:36.113Z,9.30
2023-05-11T00:35:18.405Z,9.19
2023-05-11T00:42:01.045Z,9.07
2023-05-11T00:48:44.328Z,8.98
2023-05-11T00:55:27.564Z,8.86
2023-05-11T01:02:10.147Z,8.72
2023-05-11T01:09:09.769Z,8.57
2023-05-11T01:15:56.496Z,8.46
2023-05-11T01:22:54.523Z,8.37
2023-05-11T01:30:15.210Z,8.24
2023-05-11T01:37:22.985Z,8.11
2023-05-11T01:44:10.642Z,7.99
2023-05-11T01:50:54.601Z,7.91
2023-05-11T01:57:38.206Z,7.82
2023-05-11T02:04:23.225Z,7.70
2023-05-11T02:11:07.340Z,7.57
2023-05-11T02:17:52.072Z,7.45
2023-05-11T02:24:35.749Z,7.33
2023-05-11T02:31:25.341Z,7.22
2023-05-11T02:38:09.338Z,7.12
2023-05-11T02:45:03.828Z,7.02
2023-05-11T02:51:50.579Z,6.90
2023-05-11T02:58:32.995Z,6.83
2023-05-11T03:05:28.522Z,6.79
2023-05-11T03:12:11.559Z,6.76
2023-05-11T03:18:55.990Z,6.74
2023-05-11T03:25:39.248Z,6.74
2023-05-11T03:32:21.733Z,6.78
2023-05-11T03:39:05.420Z,6.82
2023-05-11T03:45:52.305Z,6.90
2023-05-11T03:52:36.361Z,7.04
2023-05-11T03:59:19.067Z,7.19
2023-05-11T04:06:01.451Z,7.33
2023-05-11T04:12:43.888Z,7.51
2023-05-11T04:19:26.111Z,7.71
2023-05-11T04:26:08.292Z,7.90
2023-05-11T04:32:50.535Z,8.10
2023-05-11T04:39:34.259Z,8.28
2023-05-11T04:46:16.633Z,8.46
2023-05-11T04:52:58.882Z,8.66
2023-05-11T04:59:41.210Z,8.88
2023-05-11T05:06:23.682Z,9.11
2023-05-11T05:13:06.709Z,9.35
2023-05-11T05:19:48.998Z,9.57
2023-05-11T05:26:31.609Z,9.82
2023-05-11T05:33:14.640Z,10.05
2023-05-11T05:39:57.342Z,10.35
2023-05-11T05:46:40.155Z,10.64
2023-05-11T05:53:22.624Z,10.94
2023-05-11T06:00:05.869Z,11.26
2023-05-11T06:06:56.072Z,11.58
2023-05-11T06:13:38.962Z,11.90
2023-05-11T06:20:21.850Z,12.22
2023-05-11T06:27:04.279Z,12.55
2023-05-11T06:33:47.847Z,12.87
2023-05-11T06:40:37.304Z,13.19
2023-05-11T06:47:19.700Z,13.52
2023-05-11T06:54:01.971Z,13.81
2023-05-11T07:00:44.164Z,14.10
2023-05-11T07:07:26.553Z,14.39
2023-05-11T07:14:08.771Z,14.69
2023-05-11T07:20:51.034Z,14.99
2023-05-11T07:27:34.882Z,15.31
2023-05-11T07:34:17.138Z,15.62
2023-05-11T07:40:59.920Z,15.97
2023-05-11T07:47:42.219Z,16.21
2023-05-11T07:54:24.430Z,16.44
2023-05-11T08:01:07.252Z,16.70
2023-05-11T08:07:49.698Z,16.90
2023-05-11T08:14:32.874Z,17.10
2023-05-11T08:21:15.212Z,17.38
2023-05-11T08:27:57.661Z,17.57
2023-05-11T08:34:40.094Z,17.70
2023-05-11T08:41:23.425Z,17.88
2023-05-11T08:48:06.389Z,18.05
2023-05-11T08:54:49.007Z,18.30
2023-05-11T09:01:31.980Z,18.50
2023-05-11T09:08:15.856Z,18.75
2023-05-11T09:15:01.959Z,19.05
2023-05-11T09:21:44.655Z,19.22
2023-05-11T09:28:27.696Z,19.36
2023-05-11T09:35:26.859Z,19.59
2023-05-11T09:42:13.829Z,19.74
2023-05-11T09:49:01.167Z,19.86
2023-05-11T09:55:54.953Z,19.96
2023-05-11T10:02:37.262Z,20.11
2023-05-11T10:09:25.628Z,20.25
2023-05-11T10:16:10.275Z,20.47
2023-05-11T10:22:55.231Z,20.69
2023-05-11T10:29:38.247Z,20.93
2023-05-11T10:36:23.872Z,21.07
2023-05-11T10:43:54.181Z,21.35
2023-05-11T10:50:48.439Z,21.51
2023-05-11T10:58:13.313Z,21.75
2023-05-11T11:04:56.549Z,21.86
2023-05-11T11:11:41.102Z,21.87
2023-05-11T11:18:33.573Z,21.88
2023-05-11T11:25:36.856Z,22.03
2023-05-11T11:32:23.148Z,22.19
2023-05-11T11:39:05.678Z,22.35
2023-05-11T11:45:59.722Z,22.60
2023-05-11T11:52:42.026Z,22.67
2023-05-11T11:59:24.570Z,22.79
2023-05-11T12:06:09.198Z,22.95
2023-05-11T12:12:58.585Z,23.04
2023-05-11T12:19:44.350Z,23.24
2023-05-11T12:26:29.924Z,23.29
2023-05-11T12:33:15.850Z,23.26
2023-05-11T12:39:59.667Z,23.15
2023-05-11T12:46:42.143Z,23.03
2023-05-11T12:53:24.432Z,22.93
2023-05-11T13:00:11.862Z,22.84
2023-05-11T13:06:54.396Z,22.81
2023-05-11T13:13:37.805Z,22.81
2023-05-11T13:20:24.580Z,22.94
2023-05-11T13:27:07.063Z,22.89
2023-05-11T13:33:53.226Z,23.11
2023-05-11T13:40:35.854Z,23.33
2023-05-11T13:47:18.133Z,23.48
2023-05-11T13:54:02.548Z,23.67
2023-05-11T14:00:56.466Z,23.88
2023-05-11T14:07:48.248Z,23.82
2023-05-11T14:14:31.353Z,23.55
2023-05-11T14:21:13.707Z,23.42
2023-05-11T14:27:55.977Z,23.26
2023-05-11T14:34:38.459Z,23.35
2023-05-11T14:41:21.364Z,23.11
2023-05-11T14:48:04.957Z,22.88
2023-05-11T14:54:51.293Z,23.01
2023-05-11T15:01:34.896Z,22.99
2023-05-11T15:08:29.013Z,23.11
2023-05-11T15:15:13.015Z,23.05
2023-05-11T15:21:55.997Z,23.00
2023-05-11T15:28:38.691Z,23.01
2023-05-11T15:35:21.790Z,22.87
2023-05-11T15:42:05.880Z,22.54
2023-05-11T15:48:48.257Z,22.41
2023-05-11T15:55:30.646Z,22.23
2023-05-11T16:02:13.044Z,22.07
2023-05-11T16:08:55.936Z,21.96
2023-05-11T16:15:38.382Z,21.79
2023-05-11T16:22:21.069Z,21.56
2023-05-11T16:29:03.914Z,21.40
2023-05-11T16:35:46.802Z,21.23
2023-05-11T16:42:32.104Z,21.08
2023-05-11T16:49:14.274Z,20.89
2023-05-11T16:55:57.046Z,20.69
2023-05-11T17:02:39.925Z,20.45
2023-05-11T17:09:22.329Z,20.23
2023-05-11T17:16:05.170Z,19.98
2023-05-11T17:22:47.701Z,19.79
2023-05-11T17:29:30.027Z,19.58
2023-05-11T17:36:12.850Z,19.43
2023-05-11T17:42:55.102Z,19.21
2023-05-11T17:49:37.344Z,18.98
2023-05-11T17:56:19.717Z,18.76
2023-05-11T18:03:02.059Z,18.55
2023-05-11T18:09:44.616Z,18.31
2023-05-11T18:16:26.876Z,18.05
2023-05-11T18:23:09.171Z,17.74
2023-05-11T18:29:51.914Z,17.39
2023-05-11T18:36:34.564Z,17.04
2023-05-11T18:43:16.902Z,16.72
2023-05-11T18:49:59.064Z,16.38
2023-05-11T18:56:41.355Z,16.05
2023-05-11T19:03:23.672Z,15.69
2023-05-11T19:10:08.153Z,15.42
2023-05-11T19:16:50.539Z,15.10
2023-05-11T19:23:33.504Z,14.91
2023-05-11T19:30:15.684Z,14.65
2023-05-11T19:36:57.866Z,14.38
2023-05-11T19:43:40.260Z,14.17
2023-05-11T19:50:24.395Z,14.00
2023-05-11T19:57:08.468Z,13.89
2023-05-11T20:03:52.502Z,13.79
2023-05-11T20:10:35.774Z,13.64
2023-05-11T20:17:18.126Z,13.45
2023-05-11T20:24:03.620Z,13.31
2023-05-11T20:30:46.322Z,13.20
2023-05-11T20:37:31.961Z,13.08
2023-05-11T20:44:14.316Z,12.94
2023-05-11T20:50:56.618Z,12.80
2023-05-11T20:57:39.586Z,12.65
2023-05-11T21:04:22.043Z,12.55
2023-05-11T21:11:04.663Z,12.44
2023-05-11T21:17:46.929Z,12.34
2023-05-11T21:24:29.207Z,12.22
2023-05-11T21:31:11.644Z,12.06
2023-05-11T21:37:54.181Z,11.93
2023-05-11T21:44:36.478Z,11.79
2023-05-11T21:51:18.684Z,11.67
2023-05-11T21:58:02.316Z,11.53
2023-05-11T22:04:46.317Z,11.38
2023-05-11T22:11:28.667Z,11.26
2023-05-11T22:18:10.949Z,11.13
2023-05-11T22:24:53.693Z,11.00
2023-05-11T22:31:36.034Z,10.92
2023-05-11T22:38:18.404Z,10.80
2023-05-11T22:45:00.853Z,10.71
2023-05-11T22:51:46.180Z,10.62
2023-05-11T22:58:28.726Z,10.50
2023-05-11T23:05:11.248Z,10.35
2023-05-11T23:11:54.007Z,10.24
2023-05-11T23:18:36.742Z,10.12
2023-05-11T23:25:20.084Z,10.01
2023-05-11T23:32:03.486Z,9.92
2023-05-11T23:38:45.679Z,9.85
2023-05-11T23:45:28.206Z,9.77
2023-05-11T23:52:10.387Z,9.69
2023-05-11T23:58:52.630Z,9.57
